Time;durP1;ratioP1;P1;durP2;ratioP2;P2;SDS_P1;SDS_P2;PMS_P1;PMS_P2;Temp;Humidity;BMP_temperature;BMP_pressure;BME280_temperature;BME280_humidity;BME280_pressure;Samples;Min_cycle;Max_cycle;Signal;HPM_P1;HPM_P2
2022/11/02 00:01:12;;;;;;;12.90;5.10;;;;;;;;;;4993694;28;20030;-49
2022/11/02 00:03:37;;;;;;;15.85;5.90;;;;;;;;;;4993086;28;20038;-48
2022/11/02 00:06:03;;;;;;;15.70;5.82;;;;;;;;;;4992110;28;20479;-46
2022/11/02 00:08:28;;;;;;;12.10;6.05;;;;;;;;;;4996156;28;20100;-49
2022/11/02 00:10:53;;;;;;;17.70;5.50;;;;;;;;;;5002591;28;20110;-47
2022/11/02 00:13:19;;;;;;;18.60;5.70;;;;;;;;;;4996449;28;20046;-49
2022/11/02 00:15:46;;;;;;;13.15;5.95;;;;;;;;;;4993573;28;20042;-48
2022/11/02 00:18:13;;;;;;;14.35;5.93;;;;;;;;;;4999047;28;20477;-48
2022/11/02 00:20:40;;;;;;;15.98;5.13;;;;;;;;;;4996732;28;20431;-50
2022/11/02 00:23:09;;;;;;;13.10;5.97;;;;;;;;;;4997497;28;20042;-50
2022/11/02 00:25:40;;;;;;;14.95;6.00;;;;;;;;;;4995721;28;20029;-46
2022/11/02 00:28:05;;;;;;;20.35;7.28;;;;;;;;;;4997015;28;20494;-49
2022/11/02 00:30:30;;;;;;;16.63;5.07;;;;;;;;;;4995826;28;20037;-50
2022/11/02 00:32:56;;;;;;;10.35;5.60;;;;;;;;;;4993596;28;20099;-48
2022/11/02 00:35:21;;;;;;;15.23;5.65;;;;;;;;;;4997305;28;20688;-48
2022/11/02 00:37:47;;;;;;;7.93;5.00;;;;;;;;;;4993682;28;20088;-50
2022/11/02 00:40:12;;;;;;;13.02;5.45;;;;;;;;;;4998181;28;20033;-46
2022/11/02 00:42:38;;;;;;;15.13;5.75;;;;;;;;;;4997360;28;20054;-45
2022/11/02 00:45:04;;;;;;;11.55;4.88;;;;;;;;;;4994509;28;20105;-49
2022/11/02 00:47:29;;;;;;;9.65;5.03;;;;;;;;;;4999607;28;20034;-48
2022/11/02 00:49:55;;;;;;;10.02;5.28;;;;;;;;;;4997951;28;20032;-45
2022/11/02 00:52:20;;;;;;;12.52;5.13;;;;;;;;;;4998502;28;20121;-51
2022/11/02 00:54:45;;;;;;;14.77;5.63;;;;;;;;;;4991536;28;20034;-46
2022/11/02 00:57:11;;;;;;;11.05;5.22;;;;;;;;;;4989437;28;20030;-47
2022/11/02 00:59:36;;;;;;;13.70;5.35;;;;;;;;;;4998877;28;20029;-46
2022/11/02 01:02:01;;;;;;;8.18;5.40;;;;;;;;;;4989611;28;20518;-48
2022/11/02 01:04:27;;;;;;;12.80;5.25;;;;;;;;;;4986826;28;20018;-46
2022/11/02 01:06:52;;;;;;;13.27;5.47;;;;;;;;;;4997275;28;20390;-48
2022/11/02 01:09:17;;;;;;;11.02;4.95;;;;;;;;;;4995432;28;20036;-46
2022/11/02 01:11:43;;;;;;;10.13;5.13;;;;;;;;;;4993139;28;20030;-47
2022/11/02 01:14:09;;;;;;;19.33;5.88;;;;;;;;;;4995295;28;20066;-45
2022/11/02 01:16:35;;;;;;;9.65;4.85;;;;;;;;;;4994181;28;20053;-45
2022/11/02 01:19:00;;;;;;;11.05;5.15;;;;;;;;;;4996431;28;20047;-45
2022/11/02 01:21:26;;;;;;;10.27;5.53;;;;;;;;;;4995527;28;20050;-45
2022/11/02 01:23:51;;;;;;;8.55;4.90;;;;;;;;;;4990704;28;20030;-46
2022/11/02 01:26:17;;;;;;;12.23;6.00;;;;;;;;;;4988572;28;20124;-48
2022/11/02 01:28:43;;;;;;;8.57;5.22;;;;;;;;;;4996150;28;20042;-44
2022/11/02 01:31:09;;;;;;;13.30;5.53;;;;;;;;;;4991474;28;20026;-45
2022/11/02 01:33:35;;;;;;;10.10;6.05;;;;;;;;;;4995548;28;20050;-45
2022/11/02 01:36:05;;;;;;;10.85;5.93;;;;;;;;;;4989009;28;20026;-47
2022/11/02 01:38:31;;;;;;;11.65;5.78;;;;;;;;;;4996378;28;20042;-46
2022/11/02 01:40:57;;;;;;;12.00;5.70;;;;;;;;;;4992086;28;20117;-50
2022/11/02 01:43:24;;;;;;;10.57;6.32;;;;;;;;;;4985174;28;20136;-49
2022/11/02 01:45:54;;;;;;;11.20;6.10;;;;;;;;;;4992523;28;20049;-44
2022/11/02 01:48:28;;;;;;;12.98;5.95;;;;;;;;;;4978394;28;20084;-44
2022/11/02 01:50:54;;;;;;;12.88;6.20;;;;;;;;;;4994378;28;20038;-46
2022/11/02 01:53:20;;;;;;;13.65;6.80;;;;;;;;;;4992329;28;20038;-47
2022/11/02 01:55:45;;;;;;;9.60;6.15;;;;;;;;;;4987938;28;20037;-46
2022/11/02 01:58:11;;;;;;;12.18;6.20;;;;;;;;;;4993533;28;20058;-47
2022/11/02 02:00:38;;;;;;;15.60;6.85;;;;;;;;;;4995952;28;20033;-44
2022/11/02 02:03:08;;;;;;;16.52;6.85;;;;;;;;;;4996924;28;20053;-49
2022/11/02 02:05:40;;;;;;;12.55;7.15;;;;;;;;;;4990458;28;22764;-48
2022/11/02 02:08:07;;;;;;;18.27;7.70;;;;;;;;;;4991019;28;20119;-51
2022/11/02 02:10:34;;;;;;;14.73;7.15;;;;;;;;;;4995310;28;20038;-48
2022/11/02 02:12:59;;;;;;;12.90;7.07;;;;;;;;;;4989605;28;20089;-45
2022/11/02 02:15:40;;;;;;;15.48;8.25;;;;;;;;;;4994381;28;20486;-49
2022/11/02 02:18:23;;;;;;;15.07;7.55;;;;;;;;;;4994090;28;20047;-46
2022/11/02 02:21:00;;;;;;;15.15;8.20;;;;;;;;;;4997619;28;20046;-46
2022/11/02 02:23:57;;;;;;;17.42;7.82;;;;;;;;;;4990366;28;20037;-46
2022/11/02 02:26:34;;;;;;;14.95;8.00;;;;;;;;;;4990981;28;20144;-44
2022/11/02 02:29:04;;;;;;;11.88;7.43;;;;;;;;;;4992277;28;20042;-45
2022/11/02 02:31:56;;;;;;;17.95;7.85;;;;;;;;;;4988733;28;20084;-46
2022/11/02 02:34:31;;;;;;;11.35;7.00;;;;;;;;;;4989490;28;20503;-44
2022/11/02 02:37:17;;;;;;;20.17;8.20;;;;;;;;;;4991518;28;20026;-52
2022/11/02 02:39:59;;;;;;;20.63;8.77;;;;;;;;;;4996087;28;20022;-46
2022/11/02 02:42:34;;;;;;;16.23;9.02;;;;;;;;;;4997224;28;20128;-46
2022/11/02 02:45:13;;;;;;;15.52;8.07;;;;;;;;;;4989334;28;20037;-44
2022/11/02 02:47:48;;;;;;;18.48;9.13;;;;;;;;;;4994858;28;20053;-46
2022/11/02 02:50:19;;;;;;;14.43;8.10;;;;;;;;;;4993823;28;20506;-47
2022/11/02 02:52:48;;;;;;;17.23;7.70;;;;;;;;;;4990037;28;20049;-48
2022/11/02 02:55:17;;;;;;;17.50;7.82;;;;;;;;;;4991290;28;20073;-47
2022/11/02 02:57:45;;;;;;;17.27;7.90;;;;;;;;;;4983844;28;20038;-44
2022/11/02 03:00:16;;;;;;;21.23;9.35;;;;;;;;;;4995588;28;20599;-44
2022/11/02 03:02:43;;;;;;;16.38;9.63;;;;;;;;;;4991682;28;20125;-44
2022/11/02 03:05:23;;;;;;;21.90;9.95;;;;;;;;;;4992499;28;20026;-49
2022/11/02 03:07:48;;;;;;;18.90;8.55;;;;;;;;;;4992117;28;20044;-46
2022/11/02 03:10:28;;;;;;;17.08;9.05;;;;;;;;;;4995646;28;20041;-48
2022/11/02 03:13:09;;;;;;;16.60;8.75;;;;;;;;;;4989990;28;20037;-47
2022/11/02 03:15:40;;;;;;;16.63;8.55;;;;;;;;;;4992457;28;20021;-45
2022/11/02 03:18:14;;;;;;;18.80;9.30;;;;;;;;;;4994025;28;20045;-45
2022/11/02 03:20:46;;;;;;;18.80;10.40;;;;;;;;;;4996093;28;20074;-45
2022/11/02 03:23:13;;;;;;;20.13;9.50;;;;;;;;;;4996580;28;20038;-47
2022/11/02 03:26:05;;;;;;;19.42;10.65;;;;;;;;;;4999495;28;20021;-48
2022/11/02 03:28:55;;;;;;;20.25;8.90;;;;;;;;;;4988791;28;20042;-45
2022/11/02 03:31:49;;;;;;;19.85;9.82;;;;;;;;;;4997132;28;24018;-46
2022/11/02 03:34:33;;;;;;;21.77;9.80;;;;;;;;;;4992961;28;20046;-49
2022/11/02 03:37:01;;;;;;;17.75;9.82;;;;;;;;;;4992262;28;20077;-46
2022/11/02 03:39:40;;;;;;;19.00;9.98;;;;;;;;;;4999954;28;20041;-51
2022/11/02 03:42:10;;;;;;;16.92;9.43;;;;;;;;;;4997007;28;20066;-48
2022/11/02 03:44:37;;;;;;;27.00;11.27;;;;;;;;;;5006108;28;20026;-47
2022/11/02 03:47:06;;;;;;;14.77;8.90;;;;;;;;;;4997597;28;20044;-46
2022/11/02 03:49:33;;;;;;;15.07;8.48;;;;;;;;;;4993515;28;20037;-47
2022/11/02 03:52:03;;;;;;;13.68;8.20;;;;;;;;;;4998478;28;20027;-51
2022/11/02 03:54:29;;;;;;;15.10;8.80;;;;;;;;;;4991823;28;20037;-48
2022/11/02 03:56:58;;;;;;;12.55;9.00;;;;;;;;;;4995677;28;20030;-45
2022/11/02 03:59:24;;;;;;;16.40;9.30;;;;;;;;;;4993828;28;20488;-44
2022/11/02 04:01:51;;;;;;;19.10;9.07;;;;;;;;;;4996391;28;20038;-47
2022/11/02 04:04:16;;;;;;;15.32;9.38;;;;;;;;;;4993026;28;20502;-49
2022/11/02 04:06:43;;;;;;;13.82;9.23;;;;;;;;;;4997100;28;20038;-45
2022/11/02 04:09:10;;;;;;;14.35;8.85;;;;;;;;;;4995085;28;20081;-44
2022/11/02 04:14:38;;;;;;;15.85;9.63;;;;;;;;;;5001034;28;20092;-44
2022/11/02 04:19:52;;;;;;;15.50;9.00;;;;;;;;;;5000901;28;20095;-47
2022/11/02 04:25:15;;;;;;;14.70;8.90;;;;;;;;;;4996533;28;20494;-44
2022/11/02 04:27:41;;;;;;;14.80;8.32;;;;;;;;;;4992071;28;20578;-44
2022/11/02 04:30:07;;;;;;;16.52;9.10;;;;;;;;;;4999425;28;20571;-46
2022/11/02 04:35:27;;;;;;;13.68;8.60;;;;;;;;;;4996732;28;20040;-45
2022/11/02 04:40:36;;;;;;;14.65;8.80;;;;;;;;;;4993719;28;20045;-45
2022/11/02 04:43:02;;;;;;;11.98;8.73;;;;;;;;;;4997053;28;22545;-44
2022/11/02 04:45:27;;;;;;;13.45;8.57;;;;;;;;;;4996574;28;20048;-44
2022/11/02 04:47:59;;;;;;;12.32;8.43;;;;;;;;;;4989008;28;20101;-44
2022/11/02 04:50:24;;;;;;;15.05;7.75;;;;;;;;;;4999998;28;20026;-46
2022/11/02 04:52:55;;;;;;;8.85;7.75;;;;;;;;;;4992435;28;20046;-47
2022/11/02 04:55:20;;;;;;;11.35;7.93;;;;;;;;;;4993233;28;20093;-46
2022/11/02 04:57:45;;;;;;;12.15;7.53;;;;;;;;;;4988480;28;20038;-46
2022/11/02 05:00:11;;;;;;;12.90;7.68;;;;;;;;;;4998202;28;20022;-46
2022/11/02 05:02:37;;;;;;;11.32;8.48;;;;;;;;;;4990881;28;20043;-48
2022/11/02 05:05:04;;;;;;;9.60;8.30;;;;;;;;;;4994342;28;20022;-47
2022/11/02 05:07:30;;;;;;;13.00;7.53;;;;;;;;;;4992365;28;20039;-45
2022/11/02 05:09:55;;;;;;;10.80;8.20;;;;;;;;;;4996766;28;20037;-44
2022/11/02 05:12:21;;;;;;;10.45;7.50;;;;;;;;;;4993567;28;20041;-46
2022/11/02 05:14:46;;;;;;;9.40;7.13;;;;;;;;;;4996764;28;20574;-48
2022/11/02 05:17:12;;;;;;;8.27;6.72;;;;;;;;;;4979405;28;20070;-44
2022/11/02 05:19:37;;;;;;;11.40;6.78;;;;;;;;;;4990250;28;20029;-44
2022/11/02 05:22:03;;;;;;;10.30;6.85;;;;;;;;;;4989487;28;20056;-45
2022/11/02 05:24:28;;;;;;;12.25;7.00;;;;;;;;;;4992637;28;20092;-46
2022/11/02 05:26:53;;;;;;;11.10;6.55;;;;;;;;;;4991911;28;20048;-49
2022/11/02 05:29:19;;;;;;;8.18;6.68;;;;;;;;;;4986845;28;20025;-46
2022/11/02 05:31:44;;;;;;;9.05;6.40;;;;;;;;;;4988869;28;20029;-49
2022/11/02 05:34:09;;;;;;;8.48;6.45;;;;;;;;;;4996424;28;20035;-48
2022/11/02 05:36:35;;;;;;;11.45;6.32;;;;;;;;;;4989385;28;20030;-49
2022/11/02 05:39:00;;;;;;;8.82;6.13;;;;;;;;;;4988769;28;20050;-50
2022/11/02 05:41:25;;;;;;;7.35;5.78;;;;;;;;;;4993065;28;20049;-46
2022/11/02 05:43:51;;;;;;;8.35;5.65;;;;;;;;;;4995085;28;20123;-48
2022/11/02 05:46:17;;;;;;;12.00;5.40;;;;;;;;;;4990569;28;20030;-49
2022/11/02 05:48:43;;;;;;;9.63;5.32;;;;;;;;;;4992145;28;20029;-47
2022/11/02 05:51:08;;;;;;;9.18;5.22;;;;;;;;;;4995846;28;20034;-49
2022/11/02 05:53:37;;;;;;;8.00;5.22;;;;;;;;;;4994499;28;20495;-51
2022/11/02 05:56:04;;;;;;;6.28;5.18;;;;;;;;;;4994572;28;20022;-51
2022/11/02 05:58:30;;;;;;;9.40;5.30;;;;;;;;;;4991029;28;20046;-48
2022/11/02 06:01:04;;;;;;;8.27;5.07;;;;;;;;;;4985819;28;20648;-46
2022/11/02 06:03:30;;;;;;;7.95;5.43;;;;;;;;;;4983342;28;20088;-47
2022/11/02 06:06:00;;;;;;;8.25;6.15;;;;;;;;;;4988260;28;20381;-47
2022/11/02 06:08:26;;;;;;;7.80;5.03;;;;;;;;;;4994298;28;20048;-49
2022/11/02 06:10:51;;;;;;;5.43;4.85;;;;;;;;;;4994969;28;20026;-49
2022/11/02 06:13:16;;;;;;;8.48;5.65;;;;;;;;;;4995104;28;20042;-44
2022/11/02 06:15:42;;;;;;;8.00;5.57;;;;;;;;;;4987496;28;20026;-44
2022/11/02 06:18:07;;;;;;;6.95;5.03;;;;;;;;;;4988389;28;20047;-45
2022/11/02 06:20:33;;;;;;;5.72;4.45;;;;;;;;;;4984805;28;20050;-47
2022/11/02 06:22:58;;;;;;;7.47;4.65;;;;;;;;;;4990429;28;20066;-49
2022/11/02 06:25:25;;;;;;;8.23;4.80;;;;;;;;;;4997119;28;20039;-47
2022/11/02 06:27:55;;;;;;;5.43;4.93;;;;;;;;;;4992272;28;20569;-51
2022/11/02 06:30:22;;;;;;;5.13;4.47;;;;;;;;;;4991898;28;20474;-47
2022/11/02 06:32:49;;;;;;;9.13;5.00;;;;;;;;;;4992468;28;20057;-45
2022/11/02 06:35:19;;;;;;;7.78;5.22;;;;;;;;;;4992623;28;20096;-46
2022/11/02 06:37:45;;;;;;;6.35;4.95;;;;;;;;;;4983128;28;20035;-46
2022/11/02 06:40:12;;;;;;;5.82;4.97;;;;;;;;;;4983212;28;20033;-49
2022/11/02 06:42:38;;;;;;;7.32;4.50;;;;;;;;;;4984954;28;20112;-44
2022/11/02 06:45:04;;;;;;;9.50;5.25;;;;;;;;;;4988488;28;20046;-47
2022/11/02 06:47:31;;;;;;;9.02;5.10;;;;;;;;;;4990442;28;20050;-48
2022/11/02 06:49:57;;;;;;;5.97;4.85;;;;;;;;;;4993042;28;20056;-48
2022/11/02 06:52:22;;;;;;;9.25;4.70;;;;;;;;;;4999776;28;20666;-47
2022/11/02 06:54:47;;;;;;;5.10;4.60;;;;;;;;;;4998961;28;20058;-49
2022/11/02 06:57:13;;;;;;;4.80;4.40;;;;;;;;;;4988159;28;20526;-46
2022/11/02 06:59:38;;;;;;;5.20;4.70;;;;;;;;;;4997920;28;20435;-47
2022/11/02 07:02:03;;;;;;;6.05;4.38;;;;;;;;;;4982601;28;20387;-48
2022/11/02 07:04:29;;;;;;;6.63;4.60;;;;;;;;;;4998036;28;20034;-51
2022/11/02 07:06:54;;;;;;;7.85;4.30;;;;;;;;;;4998495;28;20029;-46
2022/11/02 07:09:19;;;;;;;5.68;4.03;;;;;;;;;;4990903;28;20067;-50
2022/11/02 07:11:45;;;;;;;4.60;4.20;;;;;;;;;;4998862;28;20081;-49
2022/11/02 07:14:10;;;;;;;4.60;4.20;;;;;;;;;;5001281;28;20033;-47
2022/11/02 07:16:35;;;;;;;4.60;4.20;;;;;;;;;;4997596;28;20029;-49
2022/11/02 07:19:01;;;;;;;5.97;4.15;;;;;;;;;;4993038;28;20496;-48
2022/11/02 07:21:27;;;;;;;6.32;4.28;;;;;;;;;;4999544;28;20046;-48
2022/11/02 07:23:52;;;;;;;8.60;3.90;;;;;;;;;;4991470;28;20125;-50
2022/11/02 07:26:18;;;;;;;4.53;4.13;;;;;;;;;;4996561;28;20489;-50
2022/11/02 07:28:44;;;;;;;4.20;3.85;;;;;;;;;;4996449;28;20398;-51
2022/11/02 07:31:10;;;;;;;5.32;3.80;;;;;;;;;;4995614;28;20018;-48
2022/11/02 07:33:35;;;;;;;4.63;3.67;;;;;;;;;;4997366;28;20034;-48
2022/11/02 07:36:03;;;;;;;4.68;3.72;;;;;;;;;;4984864;28;20155;-51
2022/11/02 07:38:28;;;;;;;3.72;3.42;;;;;;;;;;4995867;28;20126;-51
2022/11/02 07:40:54;;;;;;;3.70;3.40;;;;;;;;;;4996657;28;20118;-50
2022/11/02 07:43:19;;;;;;;7.10;3.95;;;;;;;;;;4989175;28;20061;-51
2022/11/02 07:45:44;;;;;;;8.80;3.38;;;;;;;;;;5001842;28;20026;-49
2022/11/02 07:48:10;;;;;;;9.10;3.60;;;;;;;;;;4994675;28;20045;-50
2022/11/02 07:50:35;;;;;;;4.55;3.72;;;;;;;;;;4997755;28;20390;-52
2022/11/02 07:53:00;;;;;;;4.45;3.60;;;;;;;;;;4994539;28;20111;-52
2022/11/02 07:55:28;;;;;;;6.88;3.95;;;;;;;;;;4998688;28;20399;-48
2022/11/02 07:58:06;;;;;;;5.68;3.60;;;;;;;;;;4996629;28;20053;-47
2022/11/02 08:00:36;;;;;;;3.78;3.45;;;;;;;;;;4994044;28;20545;-46
2022/11/02 08:03:03;;;;;;;7.38;4.22;;;;;;;;;;4996765;28;20564;-46
2022/11/02 08:05:31;;;;;;;4.38;3.97;;;;;;;;;;4997366;28;20029;-46
2022/11/02 08:07:57;;;;;;;4.90;3.20;;;;;;;;;;4990756;28;20415;-48
2022/11/02 08:10:23;;;;;;;3.75;3.13;;;;;;;;;;4991967;28;20022;-50
2022/11/02 08:12:48;;;;;;;3.15;2.83;;;;;;;;;;4998163;28;20080;-47
2022/11/02 08:15:14;;;;;;;5.13;3.55;;;;;;;;;;4995585;28;20108;-45
2022/11/02 08:17:39;;;;;;;4.93;3.25;;;;;;;;;;4997074;28;20034;-48
2022/11/02 08:20:05;;;;;;;5.15;3.50;;;;;;;;;;4994315;28;20029;-50
2022/11/02 08:22:35;;;;;;;4.22;2.95;;;;;;;;;;4990096;28;20137;-49
2022/11/02 08:25:00;;;;;;;5.50;3.88;;;;;;;;;;4996742;28;20625;-50
2022/11/02 08:27:26;;;;;;;3.55;3.13;;;;;;;;;;4994112;28;20038;-47
2022/11/02 08:29:51;;;;;;;3.63;3.20;;;;;;;;;;4989301;28;20037;-49
2022/11/02 08:32:17;;;;;;;8.35;3.90;;;;;;;;;;4996796;28;20057;-47
2022/11/02 08:34:42;;;;;;;7.95;3.78;;;;;;;;;;4996286;28;20030;-46
2022/11/02 08:37:07;;;;;;;5.82;4.15;;;;;;;;;;4997205;28;20049;-46
2022/11/02 08:39:33;;;;;;;7.57;5.35;;;;;;;;;;4996240;28;20491;-45
2022/11/02 08:41:58;;;;;;;8.93;4.10;;;;;;;;;;4993245;28;20050;-49
2022/11/02 08:44:24;;;;;;;16.85;4.35;;;;;;;;;;4996654;28;20475;-50
2022/11/02 08:46:49;;;;;;;7.75;4.00;;;;;;;;;;4995692;28;20043;-47
2022/11/02 08:49:17;;;;;;;10.35;3.28;;;;;;;;;;4996856;28;20491;-50
2022/11/02 08:51:44;;;;;;;3.53;3.10;;;;;;;;;;4996533;28;20325;-50
2022/11/02 08:54:09;;;;;;;3.97;2.78;;;;;;;;;;4990740;28;20030;-50
2022/11/02 08:56:35;;;;;;;3.03;2.72;;;;;;;;;;4994350;28;20438;-47
2022/11/02 08:59:00;;;;;;;2.90;2.53;;;;;;;;;;4992003;28;20574;-50
2022/11/02 09:01:25;;;;;;;3.22;2.70;;;;;;;;;;4998986;28;20033;-47
2022/11/02 09:03:51;;;;;;;5.25;2.97;;;;;;;;;;4995984;28;20049;-47
2022/11/02 09:06:16;;;;;;;2.53;2.33;;;;;;;;;;4992719;28;20030;-49
2022/11/02 09:08:42;;;;;;;3.08;2.80;;;;;;;;;;4995884;28;20034;-49
2022/11/02 09:11:07;;;;;;;3.05;2.75;;;;;;;;;;4993308;28;20121;-49
2022/11/02 09:13:32;;;;;;;3.20;2.80;;;;;;;;;;4986415;28;20042;-49
2022/11/02 09:15:59;;;;;;;5.15;2.55;;;;;;;;;;4994258;28;20030;-47
2022/11/02 09:18:24;;;;;;;6.07;3.45;;;;;;;;;;4999266;28;20027;-45
2022/11/02 09:20:50;;;;;;;4.68;2.70;;;;;;;;;;4992377;28;20081;-50
2022/11/02 09:23:17;;;;;;;2.60;2.25;;;;;;;;;;4993523;28;20042;-45
2022/11/02 09:25:42;;;;;;;3.65;2.20;;;;;;;;;;4995145;28;20057;-46
2022/11/02 09:28:08;;;;;;;4.10;2.10;;;;;;;;;;4997513;28;20066;-46
2022/11/02 09:30:34;;;;;;;7.35;2.28;;;;;;;;;;4993574;28;20034;-48
2022/11/02 09:33:08;;;;;;;2.95;2.30;;;;;;;;;;4994038;28;20038;-46
2022/11/02 09:35:39;;;;;;;2.45;2.03;;;;;;;;;;4998830;28;20058;-45
2022/11/02 09:38:05;;;;;;;6.80;2.77;;;;;;;;;;4995542;28;20140;-47
2022/11/02 09:40:36;;;;;;;4.18;1.95;;;;;;;;;;4998294;28;20133;-45
2022/11/02 09:43:10;;;;;;;3.85;2.17;;;;;;;;;;4988988;28;20066;-49
2022/11/02 09:45:43;;;;;;;3.05;2.17;;;;;;;;;;4993076;28;20022;-48
2022/11/02 09:48:18;;;;;;;2.90;2.45;;;;;;;;;;4990096;28;20100;-49
2022/11/02 09:51:02;;;;;;;2.45;2.25;;;;;;;;;;4996885;28;20026;-50
2022/11/02 09:53:40;;;;;;;3.83;2.08;;;;;;;;;;4990171;28;20046;-45
2022/11/02 09:56:06;;;;;;;2.97;2.00;;;;;;;;;;4993332;28;20509;-46
2022/11/02 09:58:39;;;;;;;3.65;2.03;;;;;;;;;;4995597;28;20084;-45
2022/11/02 10:01:31;;;;;;;3.50;1.80;;;;;;;;;;4993366;28;20033;-46
2022/11/02 10:04:14;;;;;;;2.55;1.80;;;;;;;;;;4990932;28;20113;-47
2022/11/02 10:06:47;;;;;;;6.10;2.10;;;;;;;;;;4992358;28;20360;-46
2022/11/02 10:09:24;;;;;;;2.80;1.70;;;;;;;;;;4995821;28;20106;-49
2022/11/02 10:12:05;;;;;;;1.88;1.77;;;;;;;;;;4995374;28;20050;-46
2022/11/02 10:14:51;;;;;;;4.07;1.90;;;;;;;;;;4993225;28;20394;-51
2022/11/02 10:17:22;;;;;;;4.93;1.98;;;;;;;;;;4987807;28;20518;-45
2022/11/02 10:19:56;;;;;;;3.25;1.70;;;;;;;;;;4995252;28;20046;-47
2022/11/02 10:22:27;;;;;;;3.13;1.48;;;;;;;;;;4994418;28;20038;-49
2022/11/02 10:24:55;;;;;;;4.90;1.75;;;;;;;;;;4997804;28;20028;-48
2022/11/02 10:27:28;;;;;;;4.55;1.80;;;;;;;;;;4994341;28;20031;-51
2022/11/02 10:30:17;;;;;;;3.20;1.33;;;;;;;;;;4991675;28;20057;-47
2022/11/02 10:32:44;;;;;;;4.28;1.80;;;;;;;;;;4988507;28;20046;-47
2022/11/02 10:35:35;;;;;;;2.83;1.50;;;;;;;;;;4989837;28;20026;-45
2022/11/02 10:38:11;;;;;;;4.43;1.38;;;;;;;;;;4993270;28;20046;-46
2022/11/02 10:40:48;;;;;;;4.15;1.63;;;;;;;;;;4993860;28;20056;-49
2022/11/02 10:43:34;;;;;;;4.25;1.85;;;;;;;;;;4989928;28;20562;-48
2022/11/02 10:46:18;;;;;;;5.18;1.70;;;;;;;;;;4993000;28;20038;-45
2022/11/02 10:48:58;;;;;;;5.65;2.13;;;;;;;;;;4994067;28;20047;-45
2022/11/02 10:51:23;;;;;;;2.33;2.00;;;;;;;;;;4986717;28;20057;-47
2022/11/02 10:53:51;;;;;;;9.57;2.40;;;;;;;;;;4995266;28;20072;-49
2022/11/02 10:56:22;;;;;;;8.38;2.38;;;;;;;;;;4993601;28;20057;-45
2022/11/02 10:59:13;;;;;;;6.40;2.28;;;;;;;;;;4995752;28;20164;-48
2022/11/02 11:01:45;;;;;;;4.95;1.85;;;;;;;;;;4995136;28;20034;-45
2022/11/02 11:04:23;;;;;;;5.97;2.28;;;;;;;;;;4990993;28;20097;-47
2022/11/02 11:06:48;;;;;;;3.42;1.80;;;;;;;;;;4992338;28;20517;-46
2022/11/02 11:09:29;;;;;;;5.40;2.28;;;;;;;;;;4996269;28;20026;-45
2022/11/02 11:11:55;;;;;;;8.10;2.40;;;;;;;;;;4990728;28;20048;-49
2022/11/02 11:14:22;;;;;;;6.63;2.83;;;;;;;;;;4991487;28;20110;-47
2022/11/02 11:16:56;;;;;;;4.53;2.13;;;;;;;;;;4997177;28;20549;-47
2022/11/02 11:19:35;;;;;;;11.23;2.30;;;;;;;;;;4996501;28;20049;-48
2022/11/02 11:22:28;;;;;;;6.57;1.90;;;;;;;;;;4991006;28;20628;-47
2022/11/02 11:25:24;;;;;;;4.18;1.58;;;;;;;;;;4995487;28;20037;-46
2022/11/02 11:27:57;;;;;;;6.30;1.63;;;;;;;;;;4987738;28;20047;-48
2022/11/02 11:30:36;;;;;;;6.03;1.80;;;;;;;;;;4991629;28;20038;-47
2022/11/02 11:33:04;;;;;;;7.65;2.00;;;;;;;;;;4992904;28;20524;-48
2022/11/02 11:35:33;;;;;;;3.95;1.80;;;;;;;;;;4991609;28;20045;-45
2022/11/02 11:38:01;;;;;;;6.22;2.08;;;;;;;;;;4998360;28;20483;-47
2022/11/02 11:40:38;;;;;;;1.75;1.60;;;;;;;;;;4998111;28;20117;-49
2022/11/02 11:43:09;;;;;;;3.67;1.42;;;;;;;;;;4998966;28;20471;-46
2022/11/02 11:45:35;;;;;;;1.80;1.63;;;;;;;;;;4999485;28;20086;-51
2022/11/02 11:48:00;;;;;;;3.40;1.90;;;;;;;;;;4999807;28;20490;-45
2022/11/02 11:50:25;;;;;;;5.93;1.80;;;;;;;;;;4995660;28;20053;-45
2022/11/02 11:53:25;;;;;;;2.75;1.50;;;;;;;;;;4995176;28;20038;-47
2022/11/02 11:55:51;;;;;;;3.20;1.52;;;;;;;;;;4994068;28;20064;-49
2022/11/02 11:58:33;;;;;;;5.88;1.90;;;;;;;;;;5002058;28;20065;-46
2022/11/02 12:01:02;;;;;;;5.28;1.52;;;;;;;;;;4995981;28;20113;-47
2022/11/02 12:03:27;;;;;;;3.50;1.90;;;;;;;;;;4994496;28;20156;-47
2022/11/02 12:06:16;;;;;;;3.55;2.13;;;;;;;;;;4997161;28;20141;-48
2022/11/02 12:09:27;;;;;;;2.95;2.03;;;;;;;;;;4995411;28;20463;-46
2022/11/02 12:12:05;;;;;;;3.90;2.08;;;;;;;;;;4973712;28;20039;-45
2022/11/02 12:14:51;;;;;;;4.80;1.90;;;;;;;;;;4976132;28;20030;-49
2022/11/02 12:17:47;;;;;;;7.90;2.35;;;;;;;;;;4972725;28;20130;-51
2022/11/02 12:20:28;;;;;;;3.13;1.63;;;;;;;;;;4974116;28;20096;-46
2022/11/02 12:23:15;;;;;;;6.78;1.98;;;;;;;;;;4970892;28;20049;-48
2022/11/02 12:25:51;;;;;;;4.35;2.13;;;;;;;;;;4976757;28;20066;-46
2022/11/02 12:28:28;;;;;;;9.57;2.40;;;;;;;;;;4974360;28;20097;-47
2022/11/02 12:31:23;;;;;;;7.70;2.38;;;;;;;;;;4972262;28;20038;-49
2022/11/02 12:34:05;;;;;;;8.10;1.80;;;;;;;;;;4977588;28;20155;-45
2022/11/02 12:36:40;;;;;;;4.50;2.10;;;;;;;;;;4972800;28;20046;-48
2022/11/02 12:39:27;;;;;;;4.40;1.83;;;;;;;;;;4962839;28;20046;-45
2022/11/02 12:42:06;;;;;;;5.57;2.30;;;;;;;;;;4970719;28;20043;-45
2022/11/02 12:44:40;;;;;;;5.80;2.08;;;;;;;;;;4974052;28;20061;-51
2022/11/02 12:47:24;;;;;;;4.38;2.17;;;;;;;;;;4980422;28;20112;-50
2022/11/02 12:50:04;;;;;;;4.68;2.20;;;;;;;;;;4992225;28;20113;-45
2022/11/02 12:52:40;;;;;;;8.70;2.58;;;;;;;;;;4995716;28;20184;-50
2022/11/02 12:55:13;;;;;;;4.50;3.10;;;;;;;;;;4996392;28;20030;-49
2022/11/02 12:57:39;;;;;;;3.83;1.73;;;;;;;;;;4998131;28;20038;-46
2022/11/02 13:00:14;;;;;;;4.50;1.80;;;;;;;;;;4996103;28;20039;-48
2022/11/02 13:03:03;;;;;;;2.97;1.50;;;;;;;;;;4996052;28;20041;-50
2022/11/02 13:05:40;;;;;;;4.47;1.88;;;;;;;;;;4994804;28;20038;-46
2022/11/02 13:08:14;;;;;;;2.35;1.58;;;;;;;;;;4999813;28;20498;-50
2022/11/02 13:10:44;;;;;;;2.90;1.85;;;;;;;;;;4995823;28;20038;-49
2022/11/02 13:13:15;;;;;;;4.07;2.17;;;;;;;;;;4996474;28;20125;-47
2022/11/02 13:15:43;;;;;;;7.55;3.10;;;;;;;;;;4991572;28;20030;-47
2022/11/02 13:18:31;;;;;;;4.80;2.50;;;;;;;;;;4989243;28;20380;-48
2022/11/02 13:21:01;;;;;;;6.95;2.28;;;;;;;;;;4996099;28;20054;-46
2022/11/02 13:23:35;;;;;;;5.13;2.63;;;;;;;;;;4998215;28;20038;-49
2022/11/02 13:26:03;;;;;;;3.05;1.90;;;;;;;;;;4990493;28;20368;-45
2022/11/02 13:28:36;;;;;;;4.25;1.95;;;;;;;;;;4997137;28;20550;-48
2022/11/02 13:31:05;;;;;;;3.63;2.90;;;;;;;;;;4992502;28;20076;-48
2022/11/02 13:33:43;;;;;;;5.38;3.13;;;;;;;;;;4990283;28;20065;-46
2022/11/02 13:36:09;;;;;;;3.20;1.70;;;;;;;;;;4994313;28;20031;-47
2022/11/02 13:39:02;;;;;;;7.70;2.03;;;;;;;;;;4997259;28;20084;-50
2022/11/02 13:41:54;;;;;;;6.05;2.00;;;;;;;;;;4991519;28;20041;-49
2022/11/02 13:44:41;;;;;;;7.07;1.70;;;;;;;;;;4991051;28;20085;-48
2022/11/02 13:47:28;;;;;;;4.65;2.03;;;;;;;;;;4991721;28;20031;-49
2022/11/02 13:49:56;;;;;;;2.88;2.38;;;;;;;;;;4994961;28;20045;-48
2022/11/02 13:52:27;;;;;;;6.38;2.15;;;;;;;;;;4992372;28;20046;-46
2022/11/02 13:54:58;;;;;;;3.42;2.00;;;;;;;;;;4992726;28;20026;-52
2022/11/02 13:57:32;;;;;;;4.90;1.92;;;;;;;;;;4994134;28;20050;-49
2022/11/02 13:59:59;;;;;;;3.33;1.92;;;;;;;;;;4993844;28;20103;-51
2022/11/02 14:02:27;;;;;;;6.97;2.17;;;;;;;;;;4990818;28;20048;-51
2022/11/02 14:04:53;;;;;;;4.18;2.40;;;;;;;;;;4991769;28;20450;-46
2022/11/02 14:07:28;;;;;;;5.68;2.70;;;;;;;;;;4992587;28;20130;-51
2022/11/02 14:10:03;;;;;;;9.20;2.92;;;;;;;;;;4991716;28;20026;-46
2022/11/02 14:12:41;;;;;;;7.60;2.33;;;;;;;;;;4996096;28;20043;-45
2022/11/02 14:15:12;;;;;;;3.83;2.15;;;;;;;;;;4997795;28;20390;-47
2022/11/02 14:17:52;;;;;;;3.95;2.10;;;;;;;;;;4992193;28;20042;-47
2022/11/02 14:20:45;;;;;;;1.83;1.50;;;;;;;;;;4994100;28;20425;-47
2022/11/02 14:25:47;;;;;;;1.98;1.45;;;;;;;;;;4993829;28;20026;-47
2022/11/02 14:28:22;;;;;;;3.42;1.25;;;;;;;;;;4993846;28;20042;-48
2022/11/02 14:31:00;;;;;;;3.10;1.40;;;;;;;;;;4991848;28;20042;-50
2022/11/02 14:33:45;;;;;;;4.15;1.35;;;;;;;;;;4995523;28;20068;-47
2022/11/02 14:36:16;;;;;;;4.43;1.55;;;;;;;;;;4987680;28;20058;-46
2022/11/02 14:39:00;;;;;;;5.07;1.93;;;;;;;;;;4994048;28;20120;-48
2022/11/02 14:41:51;;;;;;;4.80;1.65;;;;;;;;;;4993480;28;20033;-49
2022/11/02 14:44:39;;;;;;;5.13;2.17;;;;;;;;;;4993489;28;20759;-51
2022/11/02 14:47:15;;;;;;;4.10;1.70;;;;;;;;;;4995060;28;20049;-48
2022/11/02 14:49:53;;;;;;;5.50;2.13;;;;;;;;;;4994134;28;20061;-47
2022/11/02 14:52:25;;;;;;;5.80;2.15;;;;;;;;;;4989043;28;20371;-45
2022/11/02 14:55:07;;;;;;;7.13;1.88;;;;;;;;;;4988394;28;20153;-50
2022/11/02 14:57:48;;;;;;;6.13;2.10;;;;;;;;;;4993875;28;20043;-51
2022/11/02 15:00:31;;;;;;;4.97;2.20;;;;;;;;;;4993455;28;21724;-47
2022/11/02 15:02:57;;;;;;;6.93;2.17;;;;;;;;;;4995319;28;20117;-45
2022/11/02 15:05:34;;;;;;;7.82;1.95;;;;;;;;;;4997302;28;20113;-48
2022/11/02 15:08:13;;;;;;;9.60;2.40;;;;;;;;;;4996872;28;22548;-48
2022/11/02 15:10:42;;;;;;;5.80;2.22;;;;;;;;;;4989128;28;20023;-47
2022/11/02 15:13:17;;;;;;;5.22;2.20;;;;;;;;;;4993527;28;20046;-50
2022/11/02 15:15:42;;;;;;;4.75;2.10;;;;;;;;;;4996001;28;20026;-46
2022/11/02 15:18:26;;;;;;;9.18;2.63;;;;;;;;;;4998118;28;20121;-48